Time;durP1;ratioP1;P1;durP2;ratioP2;P2;SDS_P1;SDS_P2;PMS_P1;PMS_P2;Temp;Humidity;BMP_temperature;BMP_pressure;BME280_temperature;BME280_humidity;BME280_pressure;Samples;Min_cycle;Max_cycle;Signal;HPM_P1;HPM_P2
2021/12/30 00:00:20;;;;;;;0.50;0.50;;;;;;;7.35;100.00;97898.47;4091034;28;20114;-72
2021/12/30 00:02:20;;;;;;;0.50;0.50;;;;;;;7.32;100.00;97905.50;4088163;28;20082;-72
2021/12/30 00:04:22;;;;;;;0.50;0.50;;;;;;;7.33;100.00;97918.91;4088400;28;20047;-72
2021/12/30 00:06:23;;;;;;;0.52;0.52;;;;;;;7.31;100.00;97931.44;4089429;28;20129;-72
2021/12/30 00:08:24;;;;;;;0.50;0.50;;;;;;;7.29;100.00;97931.81;4087903;28;20039;-72
2021/12/30 00:10:24;;;;;;;0.47;0.47;;;;;;;7.36;100.00;97947.63;4092968;28;20529;-72
2021/12/30 00:12:25;;;;;;;0.52;0.52;;;;;;;7.36;100.00;97947.63;4092744;28;20134;-72
2021/12/30 00:14:25;;;;;;;0.60;0.60;;;;;;;7.34;100.00;97960.97;4088650;28;20089;-72
2021/12/30 00:16:25;;;;;;;0.50;0.50;;;;;;;7.36;100.00;97963.34;4089203;28;20272;-72
2021/12/30 00:18:27;;;;;;;0.50;0.50;;;;;;;7.42;100.00;97956.38;4086707;28;20130;-72
2021/12/30 00:20:27;;;;;;;0.60;0.50;;;;;;;7.45;100.00;97950.16;4088558;28;20812;-72
2021/12/30 00:22:28;;;;;;;0.75;0.75;;;;;;;7.48;100.00;97950.19;4092220;28;20522;-72
2021/12/30 00:24:29;;;;;;;0.60;0.60;;;;;;;7.50;100.00;97958.84;4088638;28;20043;-72
2021/12/30 00:26:29;;;;;;;0.70;0.60;;;;;;;7.52;100.00;97951.00;4086938;28;20116;-72
2021/12/30 00:28:30;;;;;;;0.50;0.50;;;;;;;7.55;100.00;97953.03;4088533;28;20059;-72
2021/12/30 00:30:31;;;;;;;2.38;0.65;;;;;;;7.57;100.00;97952.66;4088374;28;20043;-72
2021/12/30 00:32:31;;;;;;;0.60;0.60;;;;;;;7.55;100.00;97957.75;4090132;28;20043;-72
2021/12/30 00:34:31;;;;;;;0.50;0.50;;;;;;;7.62;100.00;97959.84;4089765;28;20044;-72
2021/12/30 00:36:32;;;;;;;0.52;0.52;;;;;;;7.66;100.00;97968.91;4096930;28;20059;-72
2021/12/30 00:38:35;;;;;;;0.70;0.65;;;;;;;7.67;100.00;97967.75;4092066;28;20039;-72
2021/12/30 00:40:36;;;;;;;;;;;;;;;7.63;100.00;97973.22;4087204;28;20047;-72
2021/12/30 00:42:36;;;;;;;0.50;0.50;;;;;;;7.64;100.00;97971.25;4088469;28;20378;-72
2021/12/30 00:44:37;;;;;;;0.52;0.52;;;;;;;7.67;100.00;97976.81;4088539;28;20047;-72
2021/12/30 00:46:37;;;;;;;0.60;0.60;;;;;;;7.65;100.00;97981.91;4086215;28;20487;-72
2021/12/30 00:48:39;;;;;;;0.65;0.65;;;;;;;7.58;100.00;97999.09;4088850;28;20292;-72
2021/12/30 00:50:43;;;;;;;0.70;0.70;;;;;;;7.56;100.00;97989.63;4087787;28;20542;-72
2021/12/30 00:52:44;;;;;;;0.63;0.60;;;;;;;7.52;100.00;97989.56;4087346;28;20369;-72
2021/12/30 00:54:44;;;;;;;1.73;0.80;;;;;;;7.47;100.00;97989.88;4087774;28;20047;-72
2021/12/30 00:56:45;;;;;;;0.80;0.80;;;;;;;7.46;100.00;98002.06;4087747;28;20043;-71
2021/12/30 00:58:46;;;;;;;1.75;0.70;;;;;;;7.48;100.00;98007.19;4087488;28;20107;-72
2021/12/30 01:00:47;;;;;;;0.70;0.70;;;;;;;7.46;100.00;98004.81;4087082;28;20324;-72
2021/12/30 01:02:48;;;;;;;0.95;0.70;;;;;;;7.45;100.00;98011.50;4092376;28;20144;-72
2021/12/30 01:04:49;;;;;;;0.70;0.70;;;;;;;7.45;100.00;98027.22;4087826;28;20066;-72
2021/12/30 01:06:51;;;;;;;0.82;0.77;;;;;;;7.40;100.00;98019.25;4092501;28;20051;-72
2021/12/30 01:08:52;;;;;;;;;;;;;;;7.40;100.00;98033.81;4090449;28;20093;-72
2021/12/30 01:10:52;;;;;;;1.00;0.90;;;;;;;7.44;100.00;98034.66;4090228;28;19918;-72
2021/12/30 01:12:54;;;;;;;1.05;0.95;;;;;;;7.41;100.00;98037.34;4088243;28;20047;-72
2021/12/30 01:14:54;;;;;;;1.10;1.00;;;;;;;7.37;100.00;98040.06;4087046;28;20044;-72
2021/12/30 01:16:59;;;;;;;0.90;0.80;;;;;;;7.40;100.00;98039.31;4087814;28;20074;-72
2021/12/30 01:21:00;;;;;;;2.28;1.05;;;;;;;7.38;100.00;98040.84;4088212;28;20047;-72
2021/12/30 01:23:01;;;;;;;1.95;1.02;;;;;;;7.31;100.00;98036.81;4088050;28;20043;-72
2021/12/30 01:25:04;;;;;;;1.48;1.15;;;;;;;7.30;100.00;98043.47;4104756;28;20054;-72
2021/12/30 01:27:05;;;;;;;1.80;0.93;;;;;;;7.28;100.00;98045.81;4086502;28;20043;-72
2021/12/30 01:29:06;;;;;;;1.15;1.00;;;;;;;7.26;100.00;98055.56;4091735;28;20210;-72
2021/12/30 01:31:07;;;;;;;1.40;1.02;;;;;;;7.23;100.00;98059.06;4089067;28;20130;-72
2021/12/30 01:33:07;;;;;;;1.55;1.20;;;;;;;7.18;100.00;98057.41;4094445;28;20513;-72
2021/12/30 01:35:10;;;;;;;2.15;1.30;;;;;;;7.16;100.00;98056.97;4087326;28;20325;-72
2021/12/30 01:37:13;;;;;;;1.42;1.17;;;;;;;7.16;100.00;98059.72;4092176;28;20063;-72
2021/12/30 01:39:13;;;;;;;3.50;1.20;;;;;;;7.14;100.00;98064.81;4090039;28;20047;-72
2021/12/30 01:41:14;;;;;;;2.58;1.45;;;;;;;7.15;100.00;98076.59;4090314;28;20043;-72
2021/12/30 01:43:15;;;;;;;5.20;2.00;;;;;;;7.13;100.00;98071.47;4090544;28;20299;-72
2021/12/30 01:45:16;;;;;;;2.75;1.98;;;;;;;7.18;100.00;98065.66;4094687;28;20136;-72
2021/12/30 01:47:16;;;;;;;2.50;1.70;;;;;;;7.20;100.00;98068.03;4091112;28;20063;-72
2021/12/30 01:49:17;;;;;;;2.97;1.90;;;;;;;7.18;100.00;98067.59;4090951;28;20804;-72
2021/12/30 01:51:17;;;;;;;4.45;2.10;;;;;;;7.15;100.00;98058.13;4090360;28;20059;-72
2021/12/30 01:53:18;;;;;;;4.20;2.20;;;;;;;7.14;100.00;98064.00;4090001;28;20055;-72
2021/12/30 01:55:21;;;;;;;3.13;2.10;;;;;;;7.14;100.00;98062.06;4089460;28;20039;-72
2021/12/30 01:57:22;;;;;;;3.53;2.28;;;;;;;7.21;100.00;98064.94;4089400;28;20437;-72
2021/12/30 01:59:23;;;;;;;2.60;1.92;;;;;;;7.23;100.00;98078.31;4089065;28;20054;-72
2021/12/30 02:01:25;;;;;;;3.28;1.88;;;;;;;7.30;100.00;98089.47;4089463;28;20046;-72
2021/12/30 02:03:25;;;;;;;4.18;1.95;;;;;;;7.38;100.00;98090.38;4089945;28;20047;-72
2021/12/30 02:05:26;;;;;;;4.85;1.77;;;;;;;7.43;100.00;98112.88;4089982;28;20097;-72
2021/12/30 02:07:26;;;;;;;4.35;1.77;;;;;;;7.49;100.00;98113.38;4089308;28;20548;-72
2021/12/30 02:09:29;;;;;;;4.57;2.10;;;;;;;7.58;100.00;98116.69;4094308;28;20043;-72
2021/12/30 02:11:29;;;;;;;3.20;1.75;;;;;;;7.61;100.00;98135.22;4091799;28;20471;-72
2021/12/30 02:13:30;;;;;;;2.38;1.92;;;;;;;7.64;100.00;98139.22;4089339;28;20054;-72
2021/12/30 02:15:30;;;;;;;5.38;1.85;;;;;;;7.66;100.00;98134.13;4092825;28;20103;-72
2021/12/30 02:17:31;;;;;;;4.95;2.22;;;;;;;7.65;100.00;98132.53;4089694;28;20047;-72
2021/12/30 02:19:32;;;;;;;2.67;1.92;;;;;;;7.62;100.00;98131.31;4093922;28;21010;-72
2021/12/30 02:21:32;;;;;;;3.67;2.25;;;;;;;7.57;100.00;98126.13;4089544;28;20044;-72
2021/12/30 02:23:35;;;;;;;3.05;2.15;;;;;;;7.56;100.00;98138.28;4091093;28;20860;-72
2021/12/30 02:25:36;;;;;;;4.97;2.20;;;;;;;7.51;100.00;98128.38;4091516;28;20531;-72
2021/12/30 02:27:36;;;;;;;3.20;1.83;;;;;;;7.50;100.00;98124.03;4088231;28;20050;-72
2021/12/30 02:29:37;;;;;;;4.35;2.50;;;;;;;7.52;100.00;98126.41;4089906;28;20047;-72
2021/12/30 02:31:39;;;;;;;3.08;2.30;;;;;;;7.46;100.00;98134.19;4089912;28;20062;-72
2021/12/30 02:33:41;;;;;;;5.53;2.30;;;;;;;7.46;100.00;98142.44;4091752;28;20055;-72
2021/12/30 02:35:42;;;;;;;11.45;2.58;;;;;;;7.47;100.00;98146.78;4090658;28;20055;-72
2021/12/30 02:37:43;;;;;;;3.85;2.58;;;;;;;7.49;100.00;98146.41;4088720;28;20549;-72
2021/12/30 02:39:48;;;;;;;3.92;2.40;;;;;;;7.47;100.00;98141.28;4089001;28;20399;-72
2021/12/30 02:41:48;;;;;;;4.03;2.08;;;;;;;7.44;100.00;98150.25;4088045;28;20070;-72
2021/12/30 02:43:49;;;;;;;2.63;2.10;;;;;;;7.45;100.00;98146.38;4089985;28;20051;-72
2021/12/30 02:45:50;;;;;;;3.90;2.50;;;;;;;7.40;100.00;98146.66;4089456;28;20462;-72
2021/12/30 02:47:50;;;;;;;5.57;2.85;;;;;;;7.45;100.00;98151.06;4087514;28;20043;-72
2021/12/30 02:49:51;;;;;;;4.95;2.72;;;;;;;7.46;100.00;98152.66;4088575;28;20130;-72
2021/12/30 02:51:51;;;;;;;10.48;2.92;;;;;;;7.53;100.00;98161.03;4089590;28;20048;-72
2021/12/30 02:53:53;;;;;;;6.20;3.30;;;;;;;7.63;100.00;98179.72;4090670;28;20542;-72
2021/12/30 02:55:54;;;;;;;5.75;3.08;;;;;;;7.75;100.00;98187.78;4088739;28;20577;-72
2021/12/30 02:57:54;;;;;;;6.60;3.53;;;;;;;7.92;100.00;98177.47;4088733;28;20096;-72
2021/12/30 02:59:54;;;;;;;5.68;3.25;;;;;;;8.08;100.00;98172.63;4088825;28;20541;-72
2021/12/30 03:01:55;;;;;;;6.93;3.33;;;;;;;8.18;100.00;98188.50;4100772;28;20362;-72
2021/12/30 03:03:57;;;;;;;6.20;3.20;;;;;;;8.28;100.00;98193.44;4118605;28;20392;-72
2021/12/30 03:06:01;;;;;;;7.53;3.50;;;;;;;8.32;100.00;98204.50;4090590;28;20082;-72
2021/12/30 03:08:01;;;;;;;7.47;4.13;;;;;;;8.38;100.00;98201.09;4091999;28;20039;-72
2021/12/30 03:10:04;;;;;;;4.80;3.35;;;;;;;8.39;100.00;98196.38;4097584;28;20061;-72
2021/12/30 03:12:04;;;;;;;;;;;;;;;8.51;100.00;98198.91;4093093;28;20041;-72
2021/12/30 03:14:05;;;;;;;6.43;3.65;;;;;;;8.43;100.00;98202.72;4089691;28;20009;-72
2021/12/30 03:16:15;;;;;;;8.02;4.00;;;;;;;8.38;100.00;98217.63;4088980;28;20048;-72
2021/12/30 03:18:16;;;;;;;9.35;4.20;;;;;;;8.46;100.00;98209.47;4088814;28;20096;-72
2021/12/30 03:20:16;;;;;;;7.60;3.90;;;;;;;8.37;100.00;98199.50;4090310;28;20534;-72
2021/12/30 03:22:16;;;;;;;7.45;3.95;;;;;;;8.42;100.00;98209.41;4088914;28;20386;-72
2021/12/30 03:24:17;;;;;;;7.38;3.85;;;;;;;8.44;100.00;98209.84;4093227;28;20035;-72
2021/12/30 03:26:18;;;;;;;6.43;4.13;;;;;;;8.50;100.00;98213.06;4092425;28;20045;-72
2021/12/30 03:28:18;;;;;;;8.43;3.70;;;;;;;8.46;100.00;98213.03;4086955;28;20383;-72
2021/12/30 03:30:19;;;;;;;7.03;3.72;;;;;;;8.47;100.00;98205.56;4089660;28;20469;-72
2021/12/30 03:32:20;;;;;;;9.15;3.55;;;;;;;8.49;100.00;98223.31;4088785;28;20077;-72
2021/12/30 03:34:20;;;;;;;6.78;3.67;;;;;;;8.62;100.00;98218.41;4087746;28;20474;-72
2021/12/30 03:36:21;;;;;;;8.07;4.22;;;;;;;8.73;99.88;98224.84;4088625;28;20412;-72
2021/12/30 03:38:21;;;;;;;9.48;3.97;;;;;;;8.78;99.36;98223.75;4091918;28;20054;-72
2021/12/30 03:40:21;;;;;;;7.13;3.83;;;;;;;8.74;99.49;98226.44;4088181;28;20479;-72
2021/12/30 03:42:22;;;;;;;7.72;3.60;;;;;;;8.75;99.09;98222.50;4091594;28;20044;-72
2021/12/30 03:44:22;;;;;;;8.50;4.22;;;;;;;8.79;98.90;98228.09;4091065;28;20047;-72
2021/12/30 03:46:23;;;;;;;7.30;3.95;;;;;;;8.81;98.51;98226.53;4088632;28;20508;-72
2021/12/30 03:48:31;;;;;;;5.13;3.38;;;;;;;8.78;98.59;98238.34;4089864;28;20515;-72
2021/12/30 03:50:31;;;;;;;10.38;3.97;;;;;;;8.81;98.40;98256.09;4089289;28;20054;-72
2021/12/30 03:52:32;;;;;;;8.20;3.58;;;;;;;8.88;97.35;98250.69;4088795;28;20039;-72
2021/12/30 03:54:32;;;;;;;7.47;3.58;;;;;;;8.84;98.24;98249.81;4088726;28;20602;-72
2021/12/30 03:56:34;;;;;;;10.55;4.03;;;;;;;8.79;97.40;98253.72;4087999;28;20107;-72
2021/12/30 03:58:36;;;;;;;8.23;4.20;;;;;;;8.80;98.50;98255.31;4088763;28;20051;-72
2021/12/30 04:00:38;;;;;;;7.32;3.75;;;;;;;8.70;98.13;98256.75;4087968;28;20043;-72
2021/12/30 04:02:38;;;;;;;7.13;3.73;;;;;;;8.71;98.87;98260.28;4091025;28;20051;-72
2021/12/30 04:04:39;;;;;;;5.90;3.42;;;;;;;8.69;98.78;98279.19;4088521;28;20480;-72
2021/12/30 04:06:39;;;;;;;8.93;4.07;;;;;;;8.73;98.53;98272.53;4087603;28;20074;-72
2021/12/30 04:08:40;;;;;;;6.47;3.85;;;;;;;8.75;98.58;98285.16;4089560;28;20054;-72
2021/12/30 04:10:40;;;;;;;10.45;4.20;;;;;;;8.77;98.27;98291.91;4087933;28;20039;-72
2021/12/30 04:12:43;;;;;;;6.40;4.22;;;;;;;8.78;97.55;98301.78;4088151;28;20047;-72
2021/12/30 04:14:44;;;;;;;10.80;3.95;;;;;;;8.86;97.59;98313.72;4088422;28;20054;-72
2021/12/30 04:16:45;;;;;;;7.88;3.90;;;;;;;8.91;96.50;98316.94;4090856;28;20039;-72
2021/12/30 04:18:48;;;;;;;8.98;4.22;;;;;;;8.88;96.83;98314.94;4089045;28;20043;-72
2021/12/30 04:20:48;;;;;;;7.60;4.45;;;;;;;8.77;97.59;98311.22;4089992;28;20350;-72
2021/12/30 04:22:49;;;;;;;6.15;4.07;;;;;;;8.69;98.14;98304.81;4088625;28;20082;-72
2021/12/30 04:24:50;;;;;;;7.63;4.05;;;;;;;8.63;98.63;98305.47;4093035;28;20039;-72
2021/12/30 04:26:50;;;;;;;7.68;3.88;;;;;;;8.59;99.58;98307.34;4087723;28;20047;-72
2021/12/30 04:28:51;;;;;;;9.93;4.07;;;;;;;8.53;100.00;98301.38;4088547;28;20047;-72
2021/12/30 04:30:51;;;;;;;8.40;4.45;;;;;;;8.56;100.00;98300.63;4088734;28;20059;-72
2021/12/30 04:32:52;;;;;;;10.30;4.57;;;;;;;8.62;100.00;98296.41;4089321;28;20047;-72
2021/12/30 04:34:52;;;;;;;7.07;4.30;;;;;;;8.56;100.00;98297.09;4086567;28;20049;-72
2021/12/30 04:36:58;;;;;;;9.07;4.28;;;;;;;8.61;100.00;98313.31;4087570;28;20458;-72
2021/12/30 04:38:58;;;;;;;11.85;4.55;;;;;;;8.66;99.80;98326.78;4088282;28;20323;-72
2021/12/30 04:40:59;;;;;;;10.07;5.15;;;;;;;8.70;99.07;98345.00;4087867;28;20109;-72
2021/12/30 04:42:59;;;;;;;10.10;5.28;;;;;;;8.76;98.70;98342.72;4087729;28;20112;-72
2021/12/30 04:45:00;;;;;;;9.70;4.95;;;;;;;8.70;99.44;98350.53;4094077;28;20133;-72
2021/12/30 04:47:00;;;;;;;11.98;5.22;;;;;;;8.75;99.59;98365.16;4087194;28;20039;-72
2021/12/30 04:49:01;;;;;;;14.15;6.50;;;;;;;8.81;98.86;98377.47;4086417;28;20047;-72
2021/12/30 04:51:01;;;;;;;9.45;5.07;;;;;;;8.75;99.03;98382.50;4088767;28;20054;-72
2021/12/30 04:53:02;;;;;;;12.23;6.15;;;;;;;8.71;99.34;98373.38;4087306;28;20445;-72
2021/12/30 04:55:04;;;;;;;13.10;6.28;;;;;;;8.68;99.37;98363.06;4088563;28;20625;-72
2021/12/30 04:57:04;;;;;;;13.18;6.30;;;;;;;8.62;99.90;98351.56;4086756;28;20048;-72
2021/12/30 04:59:05;;;;;;;15.80;5.72;;;;;;;8.52;100.00;98338.38;4087946;28;20518;-72
2021/12/30 05:01:05;;;;;;;11.73;5.70;;;;;;;8.51;100.00;98336.78;4087459;28;20043;-72
2021/12/30 05:05:06;;;;;;;11.82;4.82;;;;;;;8.50;100.00;98340.69;4089421;28;20116;-72
2021/12/30 05:07:07;;;;;;;10.20;4.38;;;;;;;8.46;99.95;98350.88;4086738;28;20410;-72
2021/12/30 05:09:08;;;;;;;10.40;4.53;;;;;;;8.50;100.00;98348.97;4087528;28;20051;-72
2021/12/30 05:11:09;;;;;;;9.27;5.10;;;;;;;8.50;99.30;98346.22;4091641;28;20051;-72
2021/12/30 05:13:10;;;;;;;12.13;4.50;;;;;;;8.49;99.96;98346.59;4088357;28;20088;-72
2021/12/30 05:15:11;;;;;;;10.82;3.88;;;;;;;8.59;97.98;98344.00;4090635;28;20203;-72
2021/12/30 05:17:12;;;;;;;11.60;4.28;;;;;;;8.62;97.59;98348.00;4090094;28;20130;-72
2021/12/30 05:19:12;;;;;;;11.88;5.60;;;;;;;8.66;97.64;98346.09;4091364;28;20043;-72
2021/12/30 05:21:12;;;;;;;9.93;4.18;;;;;;;8.72;96.18;98350.94;4089281;28;20047;-72
2021/12/30 05:23:13;;;;;;;14.63;4.13;;;;;;;8.79;94.65;98341.19;4089581;28;20043;-72
2021/12/30 05:25:15;;;;;;;15.00;5.72;;;;;;;8.83;94.20;98336.50;4090702;28;20057;-72
2021/12/30 05:27:18;;;;;;;12.70;4.90;;;;;;;8.80;94.46;98334.50;4089249;28;20043;-72
2021/12/30 05:29:18;;;;;;;9.52;4.18;;;;;;;8.81;94.44;98336.88;4090533;28;20278;-72
2021/12/30 05:31:18;;;;;;;11.27;4.30;;;;;;;8.82;93.25;98332.16;4090745;28;20124;-72
2021/12/30 05:33:19;;;;;;;8.43;3.92;;;;;;;8.81;93.37;98323.09;4090508;28;20058;-72
2021/12/30 05:35:19;;;;;;;8.32;4.32;;;;;;;8.76;94.47;98330.88;4089280;28;20055;-72
2021/12/30 05:37:20;;;;;;;13.93;4.25;;;;;;;8.73;93.66;98324.94;4089914;28;20046;-72
2021/12/30 05:39:20;;;;;;;11.60;4.18;;;;;;;8.72;94.11;98328.88;4090417;28;20043;-72
2021/12/30 05:41:22;;;;;;;8.95;3.60;;;;;;;8.77;93.22;98325.03;4089184;28;20036;-72
2021/12/30 05:43:23;;;;;;;8.57;3.60;;;;;;;8.83;93.63;98334.56;4092366;28;20046;-72
2021/12/30 05:45:23;;;;;;;11.07;4.00;;;;;;;8.84;93.57;98340.88;4094990;28;20052;-72
2021/12/30 05:47:24;;;;;;;14.82;4.63;;;;;;;8.76;94.81;98334.44;4089316;28;20122;-72
2021/12/30 05:49:24;;;;;;;15.73;4.50;;;;;;;8.69;94.68;98339.84;4090283;28;20864;-72
2021/12/30 05:51:25;;;;;;;7.80;3.35;;;;;;;8.65;95.68;98341.75;4089809;28;20052;-72
2021/12/30 05:53:26;;;;;;;9.15;3.58;;;;;;;8.64;95.45;98345.66;4089850;28;20039;-72
2021/12/30 05:55:30;;;;;;;11.38;4.03;;;;;;;8.64;95.31;98334.66;4083397;28;20273;-72
2021/12/30 05:57:31;;;;;;;10.55;3.72;;;;;;;8.61;95.09;98327.91;4085813;28;20047;-72
2021/12/30 05:59:31;;;;;;;8.80;3.47;;;;;;;8.71;95.57;98334.75;4089726;28;20460;-72
2021/12/30 06:01:32;;;;;;;10.60;3.58;;;;;;;8.82;94.03;98321.94;4089442;28;20395;-72
2021/12/30 06:03:32;;;;;;;10.25;3.72;;;;;;;8.79;94.75;98324.66;4090007;28;20358;-72
2021/12/30 06:05:33;;;;;;;11.50;3.08;;;;;;;8.77;95.52;98333.28;4089335;28;20438;-72
2021/12/30 06:07:33;;;;;;;11.65;3.22;;;;;;;8.79;94.61;98338.44;4088838;28;20055;-72
2021/12/30 06:09:34;;;;;;;8.35;4.25;;;;;;;8.73;95.57;98327.69;4097365;28;20053;-72
2021/12/30 06:11:34;;;;;;;11.80;4.35;;;;;;;8.75;95.38;98341.13;4089852;28;20043;-72
2021/12/30 06:13:34;;;;;;;11.00;3.33;;;;;;;8.82;94.94;98338.47;4089435;28;20108;-72
2021/12/30 06:15:35;;;;;;;8.85;3.47;;;;;;;8.82;95.08;98355.03;4090272;28;20404;-72
2021/12/30 06:17:37;;;;;;;8.70;3.80;;;;;;;8.81;94.90;98349.91;4088933;28;20141;-72
2021/12/30 06:19:37;;;;;;;11.43;3.67;;;;;;;8.80;95.02;98346.34;4090108;28;20071;-72
2021/12/30 06:21:38;;;;;;;8.75;3.10;;;;;;;8.84;95.01;98338.09;4089465;28;20108;-72
2021/12/30 06:23:38;;;;;;;12.20;3.08;;;;;;;8.82;95.15;98335.72;4089426;28;20130;-72
2021/12/30 06:25:38;;;;;;;10.13;3.47;;;;;;;8.79;95.19;98336.47;4090499;28;20471;-72
2021/12/30 06:27:40;;;;;;;12.93;3.60;;;;;;;8.78;96.01;98334.88;4088832;28;20051;-72
2021/12/30 06:29:40;;;;;;;7.90;2.92;;;;;;;8.84;95.42;98321.56;4089690;28;20108;-72
2021/12/30 06:31:42;;;;;;;13.07;3.15;;;;;;;8.79;96.31;98322.69;4089910;28;20082;-72
2021/12/30 06:33:42;;;;;;;9.63;3.33;;;;;;;8.76;96.00;98328.91;4088498;28;20048;-72
2021/12/30 06:35:43;;;;;;;9.15;3.13;;;;;;;8.76;96.05;98334.44;4088726;28;20360;-72
2021/12/30 06:37:43;;;;;;;8.60;3.33;;;;;;;8.76;96.32;98331.69;4089082;28;20174;-72
2021/12/30 06:39:44;;;;;;;7.95;3.00;;;;;;;8.96;94.38;98349.75;4095411;28;20131;-72
2021/12/30 06:41:44;;;;;;;10.40;3.05;;;;;;;8.94;94.85;98348.53;4088013;28;20490;-72
2021/12/30 06:43:45;;;;;;;12.25;3.55;;;;;;;8.90;95.36;98342.94;4091500;28;20070;-72
2021/12/30 06:45:45;;;;;;;9.55;2.80;;;;;;;8.90;95.47;98342.16;4092984;28;20051;-72
2021/12/30 06:47:46;;;;;;;9.70;3.10;;;;;;;8.92;95.64;98350.84;4087925;28;20047;-72
2021/12/30 06:49:47;;;;;;;14.20;4.22;;;;;;;8.95;94.95;98348.16;4088682;28;20047;-72
2021/12/30 06:51:47;;;;;;;12.43;2.78;;;;;;;8.93;94.89;98350.47;4094144;28;20058;-72
2021/12/30 06:53:47;;;;;;;7.60;3.20;;;;;;;9.03;94.75;98356.56;4089362;28;20534;-72
2021/12/30 06:55:50;;;;;;;7.93;3.80;;;;;;;8.98;94.84;98361.22;4088389;28;20062;-72
2021/12/30 06:57:50;;;;;;;13.63;4.88;;;;;;;9.03;94.23;98368.38;4154079;28;20054;-72
2021/12/30 06:59:51;;;;;;;12.43;4.88;;;;;;;9.09;94.73;98364.13;4092363;28;20403;-72
2021/12/30 07:01:51;;;;;;;10.05;3.47;;;;;;;9.06;95.03;98366.84;4094497;28;20046;-72
2021/12/30 07:03:51;;;;;;;10.98;2.97;;;;;;;8.97;95.55;98365.13;4091467;28;20165;-72
2021/12/30 07:05:54;;;;;;;8.98;3.17;;;;;;;9.00;95.63;98369.13;4089539;28;20039;-72
2021/12/30 07:07:54;;;;;;;11.25;2.58;;;;;;;9.00;95.47;98367.16;4087982;28;20106;-72
2021/12/30 07:09:55;;;;;;;6.60;2.70;;;;;;;9.01;95.70;98376.22;4094486;28;20051;-72
2021/12/30 07:11:55;;;;;;;8.77;2.80;;;;;;;9.03;95.44;98381.41;4092286;28;20043;-72
2021/12/30 07:13:56;;;;;;;9.27;2.97;;;;;;;8.97;95.53;98370.66;4088721;28;20297;-72
2021/12/30 07:15:56;;;;;;;9.05;2.67;;;;;;;9.01;95.46;98390.03;4089093;28;20074;-72
2021/12/30 07:17:57;;;;;;;5.95;2.38;;;;;;;9.09;95.43;98394.50;4088631;28;20059;-72
2021/12/30 07:19:58;;;;;;;7.85;3.35;;;;;;;9.10;95.21;98392.53;4092688;28;20161;-72
2021/12/30 07:21:58;;;;;;;8.95;2.97;;;;;;;9.10;95.29;98390.59;4088829;28;20050;-72
2021/12/30 07:23:58;;;;;;;8.98;2.92;;;;;;;9.06;96.05;98391.69;4088563;28;20051;-72
2021/12/30 07:25:59;;;;;;;10.00;2.70;;;;;;;9.08;96.57;98406.69;4089127;28;20465;-72
2021/12/30 07:28:01;;;;;;;9.60;3.00;;;;;;;9.10;96.56;98409.91;4089055;28;20444;-72
2021/12/30 07:30:03;;;;;;;8.43;2.65;;;;;;;9.18;95.79;98424.59;4091487;28;20062;-72
2021/12/30 07:32:04;;;;;;;7.50;2.60;;;;;;;9.16;95.93;98416.69;4089531;28;20122;-72
2021/12/30 07:34:04;;;;;;;6.10;2.47;;;;;;;9.19;95.85;98404.13;4087740;28;20393;-72
2021/12/30 07:36:05;;;;;;;9.43;2.58;;;;;;;9.23;96.39;98402.19;4088206;28;20412;-72
2021/12/30 07:38:05;;;;;;;8.43;2.63;;;;;;;9.22;96.05;98397.84;4088724;28;20486;-72
2021/12/30 07:40:06;;;;;;;6.80;2.40;;;;;;;9.27;96.13;98411.34;4088669;28;20559;-72
2021/12/30 07:42:07;;;;;;;9.20;3.13;;;;;;;9.25;96.18;98422.75;4088477;28;20051;-72
2021/12/30 07:44:09;;;;;;;6.53;2.50;;;;;;;9.32;96.61;98424.81;4089177;28;20043;-72
2021/12/30 07:46:10;;;;;;;9.10;2.57;;;;;;;9.37;96.03;98434.78;4089413;28;20383;-72
2021/12/30 07:48:11;;;;;;;5.72;2.65;;;;;;;9.37;96.21;98438.31;4092115;28;20408;-72
2021/12/30 07:50:12;;;;;;;7.10;2.58;;;;;;;9.29;96.40;98442.94;4090363;28;20109;-72
2021/12/30 07:52:13;;;;;;;6.47;2.72;;;;;;;9.32;96.18;98440.59;4092021;28;20358;-72
2021/12/30 07:54:13;;;;;;;3.90;2.40;;;;;;;9.35;95.72;98440.66;4088698;28;20593;-72
2021/12/30 07:56:14;;;;;;;5.88;2.10;;;;;;;9.38;96.11;98448.19;4089856;28;20115;-72
2021/12/30 07:58:14;;;;;;;6.50;2.63;;;;;;;9.40;95.79;98445.84;4088053;28;20460;-72
2021/12/30 08:00:17;;;;;;;5.85;2.35;;;;;;;9.36;96.03;98450.53;4089090;28;20152;-72
2021/12/30 08:02:17;;;;;;;6.22;2.40;;;;;;;9.31;97.96;98447.28;4092096;28;20043;-72
2021/12/30 08:04:18;;;;;;;5.88;2.72;;;;;;;9.37;96.63;98449.38;4089323;28;20340;-72
2021/12/30 08:06:18;;;;;;;3.97;2.22;;;;;;;9.44;96.99;98443.97;4094311;28;20042;-72
2021/12/30 08:08:19;;;;;;;4.20;2.28;;;;;;;9.46;97.44;98447.16;4092013;28;20621;-72
2021/12/30 08:10:20;;;;;;;4.07;1.73;;;;;;;9.48;98.08;98436.50;4093466;28;20058;-72
2021/12/30 08:12:21;;;;;;;2.63;1.87;;;;;;;9.55;98.46;98444.91;4090511;28;20464;-72
2021/12/30 08:14:21;;;;;;;3.25;1.60;;;;;;;9.53;99.12;98436.22;4088891;28;20040;-72
2021/12/30 08:16:21;;;;;;;2.80;1.50;;;;;;;9.57;98.80;98444.53;4088238;28;20474;-72
2021/12/30 08:18:22;;;;;;;2.75;1.13;;;;;;;9.63;98.99;98445.03;4087538;28;20551;-72
2021/12/30 08:20:23;;;;;;;2.83;1.80;;;;;;;9.66;99.29;98438.75;4093026;28;20545;-72
2021/12/30 08:22:23;;;;;;;2.03;1.27;;;;;;;9.75;98.90;98442.81;4088533;28;20184;-72
2021/12/30 08:24:24;;;;;;;1.20;1.10;;;;;;;9.77;98.56;98439.72;4089281;28;20534;-72
2021/12/30 08:26:25;;;;;;;2.97;1.33;;;;;;;9.75;98.68;98440.06;4088325;28;20046;-72
2021/12/30 08:28:27;;;;;;;4.15;1.67;;;;;;;9.73;98.99;98438.84;4091491;28;20046;-72
2021/12/30 08:30:28;;;;;;;2.88;1.30;;;;;;;9.68;99.84;98430.88;4092664;28;20448;-72
2021/12/30 08:32:29;;;;;;;3.15;1.50;;;;;;;9.66;99.56;98435.97;4088939;28;20509;-72
2021/12/30 08:34:29;;;;;;;1.50;1.05;;;;;;;9.66;100.00;98430.44;4091283;28;20043;-72
2021/12/30 08:36:29;;;;;;;4.63;1.10;;;;;;;9.72;99.81;98431.72;4090992;28;20043;-72
2021/12/30 08:38:30;;;;;;;2.40;1.00;;;;;;;9.69;99.96;98427.75;4088219;28;20451;-72
2021/12/30 08:40:30;;;;;;;2.25;1.08;;;;;;;9.65;100.00;98429.66;4091892;28;20399;-72
2021/12/30 08:42:31;;;;;;;2.90;1.10;;;;;;;9.61;100.00;98428.03;4092543;28;20078;-72
2021/12/30 08:44:31;;;;;;;2.67;0.93;;;;;;;9.69;100.00;98426.97;4089234;28;20063;-72
2021/12/30 08:46:32;;;;;;;0.90;0.80;;;;;;;9.62;100.00;98422.13;4092946;28;20051;-72
2021/12/30 08:48:32;;;;;;;0.95;0.90;;;;;;;9.65;100.00;98424.13;4092766;28;20142;-72
2021/12/30 08:50:33;;;;;;;1.02;0.80;;;;;;;9.64;100.00;98422.53;4092514;28;20108;-72
2021/12/30 08:52:33;;;;;;;2.03;1.08;;;;;;;9.70;100.00;98418.28;4094665;28;20047;-72
2021/12/30 08:54:35;;;;;;;1.50;0.95;;;;;;;9.72;100.00;98415.94;4090937;28;20039;-72
2021/12/30 08:56:35;;;;;;;2.03;0.90;;;;;;;9.80;100.00;98416.84;4092597;28;20047;-72
2021/12/30 08:58:35;;;;;;;1.90;1.00;;;;;;;9.83;100.00;98410.56;4093806;28;20042;-72
2021/12/30 09:00:38;;;;;;;1.20;0.68;;;;;;;9.94;100.00;98430.06;4090993;28;20128;-72
2021/12/30 09:02:39;;;;;;;;;;;;;;;10.09;100.00;98426.28;4092819;28;20398;-72
2021/12/30 09:04:44;;;;;;;1.73;0.80;;;;;;;10.17;100.00;98418.88;4094122;28;19922;-72
2021/12/30 09:06:45;;;;;;;1.95;0.93;;;;;;;10.18;100.00;98432.34;4093810;28;20051;-73
2021/12/30 09:08:45;;;;;;;0.90;0.80;;;;;;;10.25;100.00;98415.06;4091247;28;20063;-72
2021/12/30 09:10:47;;;;;;;1.85;1.35;;;;;;;10.29;99.25;98415.91;4093571;28;20047;-72
2021/12/30 09:12:50;;;;;;;1.20;1.00;;;;;;;10.37;98.53;98426.66;4091336;28;20103;-72
2021/12/30 09:14:51;;;;;;;2.53;1.20;;;;;;;10.41;97.84;98424.72;4093008;28;20498;-72
2021/12/30 09:16:52;;;;;;;2.58;1.52;;;;;;;10.43;98.01;98429.09;4092721;28;20062;-72
2021/12/30 09:18:53;;;;;;;1.13;0.70;;;;;;;10.50;97.05;98432.72;4092252;28;20178;-72
2021/12/30 09:20:53;;;;;;;1.23;1.00;;;;;;;10.57;97.00;98437.53;4091996;28;20153;-72
2021/12/30 09:22:55;;;;;;;1.02;0.73;;;;;;;10.63;96.32;98436.84;4093571;28;20058;-72
2021/12/30 09:24:55;;;;;;;1.60;1.10;;;;;;;10.64;96.74;98441.19;4090961;28;20043;-73
2021/12/30 09:26:56;;;;;;;1.10;0.95;;;;;;;10.75;95.94;98452.34;4092535;28;20055;-72
2021/12/30 09:28:56;;;;;;;0.80;0.80;;;;;;;10.64;96.31;98438.41;4093752;28;20134;-73
2021/12/30 09:30:57;;;;;;;1.17;1.00;;;;;;;10.59;96.45;98441.53;4091808;28;20043;-73
2021/12/30 09:33:00;;;;;;;1.52;1.15;;;;;;;10.59;97.05;98437.97;4092718;28;20537;-73
2021/12/30 09:35:02;;;;;;;1.63;1.23;;;;;;;10.63;97.37;98453.44;4089920;28;20333;-72